sensor_id;sensor_type;location;lat;lon;timestamp;temperature;humidity
23507;DHT22;11930;53.076;18.250;2023-08-20T00:01:14;19.10;99.90
23507;DHT22;11930;53.076;18.250;2023-08-20T00:03:43;19.00;99.90
23507;DHT22;11930;53.076;18.250;2023-08-20T00:06:09;19.00;99.90
23507;DHT22;11930;53.076;18.250;2023-08-20T00:08:35;18.90;99.90
23507;DHT22;11930;53.076;18.250;2023-08-20T00:11:02;18.90;99.90
23507;DHT22;11930;53.076;18.250;2023-08-20T00:13:28;18.90;99.90
23507;DHT22;11930;53.076;18.250;2023-08-20T00:15:55;18.90;99.90
23507;DHT22;11930;53.076;18.250;2023-08-20T00:18:21;18.90;99.90
23507;DHT22;11930;53.076;18.250;2023-08-20T00:20:47;18.90;99.90
23507;DHT22;11930;53.076;18.250;2023-08-20T00:23:13;18.90;99.90
23507;DHT22;11930;53.076;18.250;2023-08-20T00:25:41;18.90;99.90
23507;DHT22;11930;53.076;18.250;2023-08-20T00:28:07;18.90;99.90
23507;DHT22;11930;53.076;18.250;2023-08-20T00:30:33;18.80;99.90
23507;DHT22;11930;53.076;18.250;2023-08-20T00:32:59;18.80;99.90
23507;DHT22;11930;53.076;18.250;2023-08-20T00:35:25;18.80;99.90
23507;DHT22;11930;53.076;18.250;2023-08-20T00:37:51;18.80;99.90
23507;DHT22;11930;53.076;18.250;2023-08-20T00:40:17;18.80;99.90
23507;DHT22;11930;53.076;18.250;2023-08-20T00:42:43;18.80;99.90
23507;DHT22;11930;53.076;18.250;2023-08-20T00:45:10;18.70;99.90
23507;DHT22;11930;53.076;18.250;2023-08-20T00:47:36;18.70;99.90
23507;DHT22;11930;53.076;18.250;2023-08-20T00:50:02;18.70;99.90
23507;DHT22;11930;53.076;18.250;2023-08-20T00:52:38;18.70;99.90
23507;DHT22;11930;53.076;18.250;2023-08-20T00:55:08;18.60;99.90
23507;DHT22;11930;53.076;18.250;2023-08-20T00:57:39;18.70;99.90
23507;DHT22;11930;53.076;18.250;2023-08-20T01:00:06;18.60;99.90
23507;DHT22;11930;53.076;18.250;2023-08-20T01:02:36;18.60;99.90
23507;DHT22;11930;53.076;18.250;2023-08-20T01:05:04;18.60;99.90
23507;DHT22;11930;53.076;18.250;2023-08-20T01:13:18;18.50;99.90
23507;DHT22;11930;53.076;18.250;2023-08-20T01:15:44;18.50;99.90
23507;DHT22;11930;53.076;18.250;2023-08-20T01:18:10;18.60;99.90
23507;DHT22;11930;53.076;18.250;2023-08-20T01:20:41;18.50;99.90
23507;DHT22;11930;53.076;18.250;2023-08-20T01:26:17;18.50;99.90
23507;DHT22;11930;53.076;18.250;2023-08-20T01:28:46;18.50;99.90
23507;DHT22;11930;53.076;18.250;2023-08-20T01:31:12;18.40;99.90
23507;DHT22;11930;53.076;18.250;2023-08-20T01:33:40;18.40;99.90
23507;DHT22;11930;53.076;18.250;2023-08-20T01:36:08;18.30;99.90
23507;DHT22;11930;53.076;18.250;2023-08-20T01:38:36;18.30;99.90
23507;DHT22;11930;53.076;18.250;2023-08-20T01:41:04;18.30;99.90
23507;DHT22;11930;53.076;18.250;2023-08-20T01:43:30;18.20;99.90
23507;DHT22;11930;53.076;18.250;2023-08-20T01:45:58;18.20;99.90
23507;DHT22;11930;53.076;18.250;2023-08-20T01:48:23;18.20;99.90
23507;DHT22;11930;53.076;18.250;2023-08-20T01:50:50;18.20;99.90
23507;DHT22;11930;53.076;18.250;2023-08-20T01:53:16;18.10;99.90
23507;DHT22;11930;53.076;18.250;2023-08-20T01:55:42;18.10;99.90
23507;DHT22;11930;53.076;18.250;2023-08-20T01:58:08;18.10;99.90
23507;DHT22;11930;53.076;18.250;2023-08-20T02:00:34;18.10;99.90
23507;DHT22;11930;53.076;18.250;2023-08-20T02:03:00;18.00;99.90
23507;DHT22;11930;53.076;18.250;2023-08-20T02:05:26;18.00;99.90
23507;DHT22;11930;53.076;18.250;2023-08-20T02:07:53;17.90;99.90
23507;DHT22;11930;53.076;18.250;2023-08-20T02:10:19;17.90;99.90
23507;DHT22;11930;53.076;18.250;2023-08-20T02:12:46;17.90;99.90
23507;DHT22;11930;53.076;18.250;2023-08-20T02:15:13;17.90;99.90
23507;DHT22;11930;53.076;18.250;2023-08-20T02:17:38;17.80;99.90
23507;DHT22;11930;53.076;18.250;2023-08-20T02:20:05;17.80;99.90
23507;DHT22;11930;53.076;18.250;2023-08-20T02:22:32;17.80;99.90
23507;DHT22;11930;53.076;18.250;2023-08-20T02:25:00;17.80;99.90
23507;DHT22;11930;53.076;18.250;2023-08-20T02:27:26;17.80;99.90
23507;DHT22;11930;53.076;18.250;2023-08-20T02:29:52;17.80;99.90
23507;DHT22;11930;53.076;18.250;2023-08-20T02:32:17;17.80;99.90
23507;DHT22;11930;53.076;18.250;2023-08-20T02:34:44;17.70;99.90
23507;DHT22;11930;53.076;18.250;2023-08-20T02:37:10;17.70;99.90
23507;DHT22;11930;53.076;18.250;2023-08-20T02:39:36;17.70;99.90
23507;DHT22;11930;53.076;18.250;2023-08-20T02:42:02;17.70;99.90
23507;DHT22;11930;53.076;18.250;2023-08-20T02:44:28;17.60;99.90
23507;DHT22;11930;53.076;18.250;2023-08-20T02:46:54;17.60;99.90
23507;DHT22;11930;53.076;18.250;2023-08-20T02:49:20;17.60;99.90
23507;DHT22;11930;53.076;18.250;2023-08-20T02:51:46;17.60;99.90
23507;DHT22;11930;53.076;18.250;2023-08-20T02:54:12;17.50;99.90
23507;DHT22;11930;53.076;18.250;2023-08-20T02:56:38;17.60;99.90
23507;DHT22;11930;53.076;18.250;2023-08-20T02:59:04;17.50;99.90
23507;DHT22;11930;53.076;18.250;2023-08-20T03:01:30;17.50;99.90
23507;DHT22;11930;53.076;18.250;2023-08-20T03:03:56;17.50;99.90
23507;DHT22;11930;53.076;18.250;2023-08-20T03:06:22;17.50;99.90
23507;DHT22;11930;53.076;18.250;2023-08-20T03:08:48;17.50;99.90
23507;DHT22;11930;53.076;18.250;2023-08-20T03:11:14;17.50;99.90
23507;DHT22;11930;53.076;18.250;2023-08-20T03:13:40;17.50;99.90
23507;DHT22;11930;53.076;18.250;2023-08-20T03:16:06;17.50;99.90
23507;DHT22;11930;53.076;18.250;2023-08-20T03:18:34;17.40;99.90
23507;DHT22;11930;53.076;18.250;2023-08-20T03:20:59;17.40;99.90
23507;DHT22;11930;53.076;18.250;2023-08-20T03:23:26;17.40;99.90
23507;DHT22;11930;53.076;18.250;2023-08-20T03:25:52;17.40;99.90
23507;DHT22;11930;53.076;18.250;2023-08-20T03:28:18;17.30;99.90
23507;DHT22;11930;53.076;18.250;2023-08-20T03:30:45;17.40;99.90
23507;DHT22;11930;53.076;18.250;2023-08-20T03:33:15;17.30;99.90
23507;DHT22;11930;53.076;18.250;2023-08-20T03:35:42;17.30;99.90
23507;DHT22;11930;53.076;18.250;2023-08-20T03:38:09;17.30;99.90
23507;DHT22;11930;53.076;18.250;2023-08-20T03:40:34;17.20;99.90
23507;DHT22;11930;53.076;18.250;2023-08-20T03:43:02;17.20;99.90
23507;DHT22;11930;53.076;18.250;2023-08-20T03:45:29;17.20;99.90
23507;DHT22;11930;53.076;18.250;2023-08-20T03:47:57;17.20;99.90
23507;DHT22;11930;53.076;18.250;2023-08-20T03:50:22;17.20;99.90
23507;DHT22;11930;53.076;18.250;2023-08-20T03:52:49;17.20;99.90
23507;DHT22;11930;53.076;18.250;2023-08-20T03:55:16;17.20;99.90
23507;DHT22;11930;53.076;18.250;2023-08-20T03:57:42;17.30;99.90
23507;DHT22;11930;53.076;18.250;2023-08-20T04:00:08;17.30;99.90
23507;DHT22;11930;53.076;18.250;2023-08-20T04:02:41;17.40;99.90
23507;DHT22;11930;53.076;18.250;2023-08-20T04:05:07;17.40;99.90
23507;DHT22;11930;53.076;18.250;2023-08-20T04:07:33;17.50;99.90
23507;DHT22;11930;53.076;18.250;2023-08-20T04:09:59;17.60;99.90
23507;DHT22;11930;53.076;18.250;2023-08-20T04:12:25;17.80;99.90
23507;DHT22;11930;53.076;18.250;2023-08-20T04:14:51;17.90;99.90
23507;DHT22;11930;53.076;18.250;2023-08-20T04:17:18;18.10;99.90
23507;DHT22;11930;53.076;18.250;2023-08-20T04:19:44;18.40;99.90
23507;DHT22;11930;53.076;18.250;2023-08-20T04:22:10;18.60;99.90
23507;DHT22;11930;53.076;18.250;2023-08-20T04:24:36;18.80;99.90
23507;DHT22;11930;53.076;18.250;2023-08-20T04:27:02;19.00;99.90
23507;DHT22;11930;53.076;18.250;2023-08-20T04:29:29;19.20;99.90
23507;DHT22;11930;53.076;18.250;2023-08-20T04:31:55;19.50;99.90
23507;DHT22;11930;53.076;18.250;2023-08-20T04:34:21;19.80;99.90
23507;DHT22;11930;53.076;18.250;2023-08-20T04:36:51;20.20;99.90
23507;DHT22;11930;53.076;18.250;2023-08-20T04:39:18;20.60;99.90
23507;DHT22;11930;53.076;18.250;2023-08-20T04:41:48;20.90;99.90
23507;DHT22;11930;53.076;18.250;2023-08-20T04:44:16;21.30;99.90
23507;DHT22;11930;53.076;18.250;2023-08-20T04:46:43;21.60;99.90
23507;DHT22;11930;53.076;18.250;2023-08-20T04:49:10;22.00;99.90
23507;DHT22;11930;53.076;18.250;2023-08-20T04:51:38;22.30;99.90
23507;DHT22;11930;53.076;18.250;2023-08-20T04:54:04;22.70;99.90
23507;DHT22;11930;53.076;18.250;2023-08-20T04:56:30;22.80;99.90
23507;DHT22;11930;53.076;18.250;2023-08-20T04:58:56;23.10;99.90
23507;DHT22;11930;53.076;18.250;2023-08-20T05:01:45;23.40;99.90
23507;DHT22;11930;53.076;18.250;2023-08-20T05:04:12;23.80;99.90
23507;DHT22;11930;53.076;18.250;2023-08-20T05:06:38;24.10;99.90
23507;DHT22;11930;53.076;18.250;2023-08-20T05:09:06;24.50;99.90
23507;DHT22;11930;53.076;18.250;2023-08-20T05:11:32;24.80;99.90
23507;DHT22;11930;53.076;18.250;2023-08-20T05:13:59;25.20;99.90
23507;DHT22;11930;53.076;18.250;2023-08-20T05:16:26;25.50;99.90
23507;DHT22;11930;53.076;18.250;2023-08-20T05:18:52;25.80;99.90
23507;DHT22;11930;53.076;18.250;2023-08-20T05:21:19;26.00;99.90
23507;DHT22;11930;53.076;18.250;2023-08-20T05:23:44;26.00;99.90
23507;DHT22;11930;53.076;18.250;2023-08-20T05:26:11;26.00;99.90
23507;DHT22;11930;53.076;18.250;2023-08-20T05:28:37;25.90;99.90
23507;DHT22;11930;53.076;18.250;2023-08-20T05:31:03;25.80;99.90
23507;DHT22;11930;53.076;18.250;2023-08-20T05:33:30;25.60;99.90
23507;DHT22;11930;53.076;18.250;2023-08-20T05:35:59;25.20;99.90
23507;DHT22;11930;53.076;18.250;2023-08-20T05:38:24;25.10;99.90
23507;DHT22;11930;53.076;18.250;2023-08-20T05:40:51;25.00;99.90
23507;DHT22;11930;53.076;18.250;2023-08-20T05:43:17;24.80;99.90
23507;DHT22;11930;53.076;18.250;2023-08-20T05:45:43;24.80;99.90
23507;DHT22;11930;53.076;18.250;2023-08-20T05:48:13;24.60;99.90
23507;DHT22;11930;53.076;18.250;2023-08-20T05:50:39;24.60;99.90
23507;DHT22;11930;53.076;18.250;2023-08-20T05:55:32;24.60;99.90
23507;DHT22;11930;53.076;18.250;2023-08-20T05:57:59;24.60;99.90
23507;DHT22;11930;53.076;18.250;2023-08-20T06:00:26;24.70;99.90
23507;DHT22;11930;53.076;18.250;2023-08-20T06:02:52;24.70;99.90
23507;DHT22;11930;53.076;18.250;2023-08-20T06:05:19;24.80;99.90
23507;DHT22;11930;53.076;18.250;2023-08-20T06:07:44;24.80;99.90
23507;DHT22;11930;53.076;18.250;2023-08-20T06:10:11;24.90;99.90
23507;DHT22;11930;53.076;18.250;2023-08-20T06:12:37;25.00;99.90
23507;DHT22;11930;53.076;18.250;2023-08-20T06:15:04;25.10;99.90
23507;DHT22;11930;53.076;18.250;2023-08-20T06:17:30;25.10;99.90
23507;DHT22;11930;53.076;18.250;2023-08-20T06:19:56;25.20;99.90
23507;DHT22;11930;53.076;18.250;2023-08-20T06:22:22;25.30;99.90
23507;DHT22;11930;53.076;18.250;2023-08-20T06:24:48;25.40;99.90
23507;DHT22;11930;53.076;18.250;2023-08-20T06:27:14;25.50;99.90
23507;DHT22;11930;53.076;18.250;2023-08-20T06:29:40;25.60;99.90
23507;DHT22;11930;53.076;18.250;2023-08-20T06:32:06;25.70;99.90
23507;DHT22;11930;53.076;18.250;2023-08-20T06:34:34;25.80;99.90
23507;DHT22;11930;53.076;18.250;2023-08-20T06:37:00;25.90;99.90
23507;DHT22;11930;53.076;18.250;2023-08-20T06:39:26;25.90;99.90
23507;DHT22;11930;53.076;18.250;2023-08-20T06:41:52;26.00;99.90
23507;DHT22;11930;53.076;18.250;2023-08-20T06:44:20;26.10;99.90
23507;DHT22;11930;53.076;18.250;2023-08-20T06:46:46;26.20;99.90
23507;DHT22;11930;53.076;18.250;2023-08-20T06:49:12;26.40;99.90
23507;DHT22;11930;53.076;18.250;2023-08-20T06:51:37;26.50;99.90
23507;DHT22;11930;53.076;18.250;2023-08-20T06:54:04;26.60;99.90
23507;DHT22;11930;53.076;18.250;2023-08-20T06:56:32;26.80;99.90
23507;DHT22;11930;53.076;18.250;2023-08-20T06:58:59;26.90;99.90
23507;DHT22;11930;53.076;18.250;2023-08-20T07:01:25;27.20;99.90
23507;DHT22;11930;53.076;18.250;2023-08-20T07:03:51;27.30;99.90
23507;DHT22;11930;53.076;18.250;2023-08-20T07:06:17;27.60;99.90
23507;DHT22;11930;53.076;18.250;2023-08-20T07:08:44;27.70;99.90
23507;DHT22;11930;53.076;18.250;2023-08-20T07:11:10;27.90;99.90
23507;DHT22;11930;53.076;18.250;2023-08-20T07:13:37;28.00;99.90
23507;DHT22;11930;53.076;18.250;2023-08-20T07:16:03;28.20;99.90
23507;DHT22;11930;53.076;18.250;2023-08-20T07:18:29;28.30;99.90
23507;DHT22;11930;53.076;18.250;2023-08-20T07:20:56;28.60;99.90
23507;DHT22;11930;53.076;18.250;2023-08-20T07:23:21;28.90;99.90
23507;DHT22;11930;53.076;18.250;2023-08-20T07:25:48;29.40;99.90
23507;DHT22;11930;53.076;18.250;2023-08-20T07:28:17;29.90;99.90
23507;DHT22;11930;53.076;18.250;2023-08-20T07:30:52;30.50;99.90
23507;DHT22;11930;53.076;18.250;2023-08-20T07:33:18;31.10;99.90
23507;DHT22;11930;53.076;18.250;2023-08-20T07:35:44;32.10;99.00
23507;DHT22;11930;53.076;18.250;2023-08-20T07:38:10;32.40;94.70
23507;DHT22;11930;53.076;18.250;2023-08-20T07:40:36;33.00;91.40
23507;DHT22;11930;53.076;18.250;2023-08-20T07:43:02;33.50;86.80
23507;DHT22;11930;53.076;18.250;2023-08-20T07:45:28;33.90;83.00
23507;DHT22;11930;53.076;18.250;2023-08-20T07:47:54;34.30;79.20
23507;DHT22;11930;53.076;18.250;2023-08-20T07:50:20;34.50;79.30
23507;DHT22;11930;53.076;18.250;2023-08-20T07:52:46;34.80;72.90
23507;DHT22;11930;53.076;18.250;2023-08-20T07:55:12;34.90;71.20
23507;DHT22;11930;53.076;18.250;2023-08-20T07:57:38;35.10;72.30
23507;DHT22;11930;53.076;18.250;2023-08-20T08:00:05;35.10;70.90
23507;DHT22;11930;53.076;18.250;2023-08-20T08:02:37;35.10;69.80
23507;DHT22;11930;53.076;18.250;2023-08-20T08:05:03;34.90;67.90
23507;DHT22;11930;53.076;18.250;2023-08-20T08:07:29;34.60;69.20
23507;DHT22;11930;53.076;18.250;2023-08-20T08:09:55;34.30;70.90
23507;DHT22;11930;53.076;18.250;2023-08-20T08:12:21;33.90;70.90
23507;DHT22;11930;53.076;18.250;2023-08-20T08:14:47;33.60;73.20
23507;DHT22;11930;53.076;18.250;2023-08-20T08:17:13;33.10;72.30
23507;DHT22;11930;53.076;18.250;2023-08-20T08:19:39;32.80;75.20
23507;DHT22;11930;53.076;18.250;2023-08-20T08:22:05;32.40;76.30
23507;DHT22;11930;53.076;18.250;2023-08-20T08:24:31;32.10;78.90
23507;DHT22;11930;53.076;18.250;2023-08-20T08:26:57;31.80;78.30
23507;DHT22;11930;53.076;18.250;2023-08-20T08:29:23;31.70;79.50
23507;DHT22;11930;53.076;18.250;2023-08-20T08:31:49;31.50;81.80
23507;DHT22;11930;53.076;18.250;2023-08-20T08:34:15;31.50;87.50
23507;DHT22;11930;53.076;18.250;2023-08-20T08:36:41;31.70;83.30
23507;DHT22;11930;53.076;18.250;2023-08-20T08:39:07;32.00;84.40
23507;DHT22;11930;53.076;18.250;2023-08-20T08:41:35;32.40;81.80
23507;DHT22;11930;53.076;18.250;2023-08-20T08:44:06;32.80;80.20
23507;DHT22;11930;53.076;18.250;2023-08-20T08:46:35;33.20;75.80
23507;DHT22;11930;53.076;18.250;2023-08-20T08:49:01;33.50;72.20
23507;DHT22;11930;53.076;18.250;2023-08-20T08:51:27;33.70;71.80
23507;DHT22;11930;53.076;18.250;2023-08-20T08:53:54;33.90;72.70
23507;DHT22;11930;53.076;18.250;2023-08-20T08:56:20;34.10;68.80
23507;DHT22;11930;53.076;18.250;2023-08-20T08:58:47;34.30;69.30
23507;DHT22;11930;53.076;18.250;2023-08-20T09:01:13;34.50;67.40
23507;DHT22;11930;53.076;18.250;2023-08-20T09:03:39;34.70;66.40
23507;DHT22;11930;53.076;18.250;2023-08-20T09:06:09;34.90;65.20
23507;DHT22;11930;53.076;18.250;2023-08-20T09:08:36;35.00;63.80
23507;DHT22;11930;53.076;18.250;2023-08-20T09:11:02;35.10;62.30
23507;DHT22;11930;53.076;18.250;2023-08-20T09:13:39;35.10;62.00
23507;DHT22;11930;53.076;18.250;2023-08-20T09:16:07;35.00;62.00
23507;DHT22;11930;53.076;18.250;2023-08-20T09:18:43;35.00;60.80
23507;DHT22;11930;53.076;18.250;2023-08-20T09:21:11;35.10;60.00
23507;DHT22;11930;53.076;18.250;2023-08-20T09:23:38;35.10;61.10
23507;DHT22;11930;53.076;18.250;2023-08-20T09:26:05;35.10;60.90
23507;DHT22;11930;53.076;18.250;2023-08-20T09:28:45;35.10;60.90
23507;DHT22;11930;53.076;18.250;2023-08-20T09:31:12;35.00;59.70
23507;DHT22;11930;53.076;18.250;2023-08-20T09:33:49;35.00;60.00
23507;DHT22;11930;53.076;18.250;2023-08-20T09:36:15;34.80;61.30
23507;DHT22;11930;53.076;18.250;2023-08-20T09:38:42;34.70;59.90
23507;DHT22;11930;53.076;18.250;2023-08-20T09:41:08;34.50;61.60
23507;DHT22;11930;53.076;18.250;2023-08-20T09:43:38;34.20;61.00
23507;DHT22;11930;53.076;18.250;2023-08-20T09:46:05;34.00;64.70
23507;DHT22;11930;53.076;18.250;2023-08-20T09:48:38;33.80;63.80
23507;DHT22;11930;53.076;18.250;2023-08-20T09:51:10;33.50;63.40
23507;DHT22;11930;53.076;18.250;2023-08-20T09:53:51;33.20;64.20
23507;DHT22;11930;53.076;18.250;2023-08-20T09:56:28;33.20;66.00
23507;DHT22;11930;53.076;18.250;2023-08-20T09:58:57;33.30;65.00
23507;DHT22;11930;53.076;18.250;2023-08-20T10:01:24;33.40;67.80
23507;DHT22;11930;53.076;18.250;2023-08-20T10:03:50;33.40;66.40
23507;DHT22;11930;53.076;18.250;2023-08-20T10:06:17;33.30;64.60
23507;DHT22;11930;53.076;18.250;2023-08-20T10:08:45;33.30;67.10
23507;DHT22;11930;53.076;18.250;2023-08-20T10:11:12;33.20;64.30
23507;DHT22;11930;53.076;18.250;2023-08-20T10:13:39;33.20;65.10
23507;DHT22;11930;53.076;18.250;2023-08-20T10:16:05;33.10;67.60
23507;DHT22;11930;53.076;18.250;2023-08-20T10:18:34;33.10;65.20
23507;DHT22;11930;53.076;18.250;2023-08-20T10:21:01;33.10;65.70
23507;DHT22;11930;53.076;18.250;2023-08-20T10:23:28;33.10;65.40
23507;DHT22;11930;53.076;18.250;2023-08-20T10:25:54;33.10;63.20
23507;DHT22;11930;53.076;18.250;2023-08-20T10:28:32;33.10;67.00
23507;DHT22;11930;53.076;18.250;2023-08-20T10:33:35;33.00;63.90
23507;DHT22;11930;53.076;18.250;2023-08-20T10:36:31;32.90;63.80
23507;DHT22;11930;53.076;18.250;2023-08-20T10:39:20;32.90;64.40
23507;DHT22;11930;53.076;18.250;2023-08-20T10:41:48;32.70;64.70
23507;DHT22;11930;53.076;18.250;2023-08-20T10:44:58;32.50;63.80
23507;DHT22;11930;53.076;18.250;2023-08-20T10:47:25;32.20;66.00
23507;DHT22;11930;53.076;18.250;2023-08-20T10:49:54;32.00;66.30
23507;DHT22;11930;53.076;18.250;2023-08-20T10:52:22;31.90;67.40
23507;DHT22;11930;53.076;18.250;2023-08-20T10:54:52;31.80;68.20
23507;DHT22;11930;53.076;18.250;2023-08-20T10:57:18;31.70;71.40
23507;DHT22;11930;53.076;18.250;2023-08-20T10:59:57;31.50;70.80
23507;DHT22;11930;53.076;18.250;2023-08-20T11:02:26;31.40;71.40
23507;DHT22;11930;53.076;18.250;2023-08-20T11:04:53;31.50;72.40
23507;DHT22;11930;53.076;18.250;2023-08-20T11:07:20;31.50;70.90
23507;DHT22;11930;53.076;18.250;2023-08-20T11:09:46;31.50;70.80
23507;DHT22;11930;53.076;18.250;2023-08-20T11:12:15;31.60;71.90
23507;DHT22;11930;53.076;18.250;2023-08-20T11:14:42;31.80;72.00
23507;DHT22;11930;53.076;18.250;2023-08-20T11:17:07;32.00;70.30
23507;DHT22;11930;53.076;18.250;2023-08-20T11:19:35;32.20;71.10
23507;DHT22;11930;53.076;18.250;2023-08-20T11:22:02;32.30;69.70
23507;DHT22;11930;53.076;18.250;2023-08-20T11:24:29;32.40;69.70
23507;DHT22;11930;53.076;18.250;2023-08-20T11:26:55;32.40;69.80
23507;DHT22;11930;53.076;18.250;2023-08-20T11:29:21;32.50;68.40
23507;DHT22;11930;53.076;18.250;2023-08-20T11:31:48;32.50;68.20
23507;DHT22;11930;53.076;18.250;2023-08-20T11:34:14;32.50;70.20
23507;DHT22;11930;53.076;18.250;2023-08-20T11:36:40;32.40;68.80
23507;DHT22;11930;53.076;18.250;2023-08-20T11:39:07;32.40;70.00
23507;DHT22;11930;53.076;18.250;2023-08-20T11:41:36;32.30;70.60
23507;DHT22;11930;53.076;18.250;2023-08-20T11:44:03;32.30;70.60
23507;DHT22;11930;53.076;18.250;2023-08-20T11:46:29;32.20;68.10
23507;DHT22;11930;53.076;18.250;2023-08-20T11:49:03;32.20;68.70
23507;DHT22;11930;53.076;18.250;2023-08-20T11:51:37;32.20;69.70
23507;DHT22;11930;53.076;18.250;2023-08-20T11:54:13;32.20;71.30
23507;DHT22;11930;53.076;18.250;2023-08-20T11:56:48;32.20;69.20
23507;DHT22;11930;53.076;18.250;2023-08-20T11:59:16;32.20;69.10
23507;DHT22;11930;53.076;18.250;2023-08-20T12:01:42;32.20;70.30
23507;DHT22;11930;53.076;18.250;2023-08-20T12:04:10;32.10;68.80
23507;DHT22;11930;53.076;18.250;2023-08-20T12:06:37;32.10;69.60
23507;DHT22;11930;53.076;18.250;2023-08-20T12:09:23;32.10;67.50
23507;DHT22;11930;53.076;18.250;2023-08-20T12:11:50;32.00;67.60
23507;DHT22;11930;53.076;18.250;2023-08-20T12:14:17;32.00;67.70
23507;DHT22;11930;53.076;18.250;2023-08-20T12:16:43;32.00;68.00
23507;DHT22;11930;53.076;18.250;2023-08-20T12:19:10;32.00;66.80
23507;DHT22;11930;53.076;18.250;2023-08-20T12:21:36;31.90;68.30
23507;DHT22;11930;53.076;18.250;2023-08-20T12:24:02;31.80;69.90
23507;DHT22;11930;53.076;18.250;2023-08-20T12:26:30;31.80;69.10
23507;DHT22;11930;53.076;18.250;2023-08-20T12:28:56;31.70;69.20
23507;DHT22;11930;53.076;18.250;2023-08-20T12:31:22;31.80;70.00
23507;DHT22;11930;53.076;18.250;2023-08-20T12:33:48;31.80;68.70
23507;DHT22;11930;53.076;18.250;2023-08-20T12:36:14;32.00;66.40
23507;DHT22;11930;53.076;18.250;2023-08-20T12:38:40;32.00;65.70
23507;DHT22;11930;53.076;18.250;2023-08-20T12:41:07;32.00;66.00
23507;DHT22;11930;53.076;18.250;2023-08-20T12:43:33;32.10;65.80
23507;DHT22;11930;53.076;18.250;2023-08-20T12:45:59;32.10;67.30
23507;DHT22;11930;53.076;18.250;2023-08-20T12:48:26;32.20;66.80
23507;DHT22;11930;53.076;18.250;2023-08-20T12:50:51;32.30;66.40
23507;DHT22;11930;53.076;18.250;2023-08-20T12:53:18;32.30;66.00
23507;DHT22;11930;53.076;18.250;2023-08-20T12:55:44;32.40;65.60
23507;DHT22;11930;53.076;18.250;2023-08-20T12:58:10;32.40;65.50
23507;DHT22;11930;53.076;18.250;2023-08-20T13:00:36;32.40;63.90
23507;DHT22;11930;53.076;18.250;2023-08-20T13:03:03;32.40;64.30
23507;DHT22;11930;53.076;18.250;2023-08-20T13:05:29;32.50;66.00
23507;DHT22;11930;53.076;18.250;2023-08-20T13:07:56;32.40;67.10
23507;DHT22;11930;53.076;18.250;2023-08-20T13:10:22;32.40;64.20
23507;DHT22;11930;53.076;18.250;2023-08-20T13:12:51;32.30;64.10
23507;DHT22;11930;53.076;18.250;2023-08-20T13:15:20;32.30;65.30
23507;DHT22;11930;53.076;18.250;2023-08-20T13:17:48;32.30;65.70
23507;DHT22;11930;53.076;18.250;2023-08-20T13:20:15;32.30;65.30
23507;DHT22;11930;53.076;18.250;2023-08-20T13:22:51;32.20;66.20
23507;DHT22;11930;53.076;18.250;2023-08-20T13:25:17;32.20;64.90
23507;DHT22;11930;53.076;18.250;2023-08-20T13:27:43;32.20;66.20
23507;DHT22;11930;53.076;18.250;2023-08-20T13:30:10;32.20;64.50
23507;DHT22;11930;53.076;18.250;2023-08-20T13:32:37;32.20;63.80
23507;DHT22;11930;53.076;18.250;2023-08-20T13:35:03;32.20;65.10
23507;DHT22;11930;53.076;18.250;2023-08-20T13:37:31;32.20;65.90
23507;DHT22;11930;53.076;18.250;2023-08-20T13:40:00;32.20;65.20
23507;DHT22;11930;53.076;18.250;2023-08-20T13:42:26;32.10;65.10
23507;DHT22;11930;53.076;18.250;2023-08-20T13:44:52;32.10;65.60
23507;DHT22;11930;53.076;18.250;2023-08-20T13:47:18;32.10;65.50
23507;DHT22;11930;53.076;18.250;2023-08-20T13:49:44;32.10;65.60
23507;DHT22;11930;53.076;18.250;2023-08-20T13:52:10;32.00;64.50
23507;DHT22;11930;53.076;18.250;2023-08-20T13:54:36;32.00;64.90
23507;DHT22;11930;53.076;18.250;2023-08-20T13:57:03;32.00;65.10
23507;DHT22;11930;53.076;18.250;2023-08-20T13:59:30;31.90;65.00
23507;DHT22;11930;53.076;18.250;2023-08-20T14:01:57;31.90;65.60
23507;DHT22;11930;53.076;18.250;2023-08-20T14:04:23;31.80;66.40
23507;DHT22;11930;53.076;18.250;2023-08-20T14:06:49;31.80;65.50
23507;DHT22;11930;53.076;18.250;2023-08-20T14:09:15;31.70;66.80
23507;DHT22;11930;53.076;18.250;2023-08-20T14:11:44;31.50;64.30
23507;DHT22;11930;53.076;18.250;2023-08-20T14:14:10;31.50;66.60
23507;DHT22;11930;53.076;18.250;2023-08-20T14:16:36;31.40;65.80
23507;DHT22;11930;53.076;18.250;2023-08-20T14:19:02;31.40;67.40
23507;DHT22;11930;53.076;18.250;2023-08-20T14:21:28;31.40;66.50
23507;DHT22;11930;53.076;18.250;2023-08-20T14:23:54;31.40;67.80
23507;DHT22;11930;53.076;18.250;2023-08-20T14:26:21;31.40;65.80
23507;DHT22;11930;53.076;18.250;2023-08-20T14:28:46;31.40;66.40
23507;DHT22;11930;53.076;18.250;2023-08-20T14:31:13;31.20;66.10
23507;DHT22;11930;53.076;18.250;2023-08-20T14:33:39;31.20;68.30
23507;DHT22;11930;53.076;18.250;2023-08-20T14:36:06;31.20;66.80
23507;DHT22;11930;53.076;18.250;2023-08-20T14:38:32;31.10;66.30
23507;DHT22;11930;53.076;18.250;2023-08-20T14:41:02;31.10;66.30
23507;DHT22;11930;53.076;18.250;2023-08-20T14:43:29;31.10;68.00
23507;DHT22;11930;53.076;18.250;2023-08-20T14:45:56;31.10;70.60
23507;DHT22;11930;53.076;18.250;2023-08-20T14:48:22;31.10;68.20
23507;DHT22;11930;53.076;18.250;2023-08-20T14:50:49;31.10;67.40
23507;DHT22;11930;53.076;18.250;2023-08-20T14:53:15;31.10;68.10
23507;DHT22;11930;53.076;18.250;2023-08-20T14:55:41;31.10;68.70
23507;DHT22;11930;53.076;18.250;2023-08-20T14:58:07;31.00;70.10
23507;DHT22;11930;53.076;18.250;2023-08-20T15:00:33;30.90;70.60
23507;DHT22;11930;53.076;18.250;2023-08-20T15:02:59;30.80;70.80
23507;DHT22;11930;53.076;18.250;2023-08-20T15:05:26;30.70;71.30
23507;DHT22;11930;53.076;18.250;2023-08-20T15:07:52;30.60;71.80
23507;DHT22;11930;53.076;18.250;2023-08-20T15:10:19;30.50;72.30
23507;DHT22;11930;53.076;18.250;2023-08-20T15:12:45;30.40;72.80
23507;DHT22;11930;53.076;18.250;2023-08-20T15:15:11;30.30;74.60
23507;DHT22;11930;53.076;18.250;2023-08-20T15:17:37;30.20;74.50
23507;DHT22;11930;53.076;18.250;2023-08-20T15:20:04;30.00;75.60
23507;DHT22;11930;53.076;18.250;2023-08-20T15:22:40;29.90;76.40
23507;DHT22;11930;53.076;18.250;2023-08-20T15:25:06;29.80;76.60
23507;DHT22;11930;53.076;18.250;2023-08-20T15:27:37;29.70;77.70
23507;DHT22;11930;53.076;18.250;2023-08-20T15:30:04;29.60;78.00